createdAt,value
2017-07-19T00:02:07.472Z,7.63
2017-07-19T00:04:34.645Z,7.53
2017-07-19T00:07:00.826Z,7.50
2017-07-19T00:09:27.014Z,7.40
2017-07-19T00:11:53.967Z,7.30
2017-07-19T00:14:20.253Z,7.10
2017-07-19T00:16:46.458Z,7.50
2017-07-19T00:19:13.219Z,7.33
2017-07-19T00:21:39.374Z,8.33
2017-07-19T00:24:05.595Z,7.20
2017-07-19T00:26:31.802Z,8.37
2017-07-19T00:28:57.975Z,7.57
2017-07-19T00:31:24.126Z,8.00
2017-07-19T00:33:50.311Z,8.00
2017-07-19T00:36:16.489Z,7.47
2017-07-19T00:38:44.396Z,7.87
2017-07-19T00:41:10.642Z,7.33
2017-07-19T00:43:36.825Z,7.43
2017-07-19T00:46:03.794Z,8.00
2017-07-19T00:48:29.989Z,8.27
2017-07-19T00:50:56.905Z,7.60
2017-07-19T00:53:23.115Z,8.13
2017-07-19T00:55:49.311Z,8.07
2017-07-19T00:58:15.656Z,7.43
2017-07-19T01:00:41.858Z,8.63
2017-07-19T01:03:08.044Z,8.27
2017-07-19T01:05:34.239Z,8.07
2017-07-19T01:08:00.808Z,8.40
2017-07-19T01:10:26.996Z,8.47
2017-07-19T01:12:53.237Z,7.97
2017-07-19T01:15:19.493Z,7.23
2017-07-19T01:17:45.670Z,7.90
2017-07-19T01:20:12.229Z,9.07
2017-07-19T01:22:38.452Z,8.20
2017-07-19T01:25:04.617Z,8.60
2017-07-19T01:27:30.818Z,9.07
2017-07-19T01:29:57.010Z,9.03
2017-07-19T01:32:24.015Z,9.10
2017-07-19T01:34:50.190Z,8.50
2017-07-19T01:37:17.146Z,8.50
2017-07-19T01:39:44.195Z,8.80
2017-07-19T01:42:11.099Z,8.80
2017-07-19T01:44:37.274Z,9.97
2017-07-19T01:47:03.738Z,8.47
2017-07-19T01:49:44.949Z,9.47
2017-07-19T01:52:11.201Z,8.87
2017-07-19T01:54:38.147Z,9.20
2017-07-19T01:57:05.072Z,8.40
2017-07-19T01:59:32.010Z,9.67
2017-07-19T02:01:58.187Z,8.20
2017-07-19T02:04:24.429Z,9.33
2017-07-19T02:06:50.620Z,8.80
2017-07-19T02:09:17.579Z,9.50
2017-07-19T02:11:44.869Z,7.67
2017-07-19T02:14:11.059Z,8.87
2017-07-19T02:16:37.994Z,8.73
2017-07-19T02:19:04.893Z,8.90
2017-07-19T02:21:31.098Z,10.27
2017-07-19T02:23:57.309Z,9.17
2017-07-19T02:26:23.855Z,8.60
2017-07-19T02:28:50.064Z,10.40
2017-07-19T02:31:17.037Z,9.70
2017-07-19T02:33:43.217Z,9.40
2017-07-19T02:36:09.414Z,10.03
2017-07-19T02:38:35.582Z,9.63
2017-07-19T02:41:01.765Z,9.40
2017-07-19T02:43:27.961Z,10.67
2017-07-19T02:45:54.194Z,8.53
2017-07-19T02:48:20.422Z,9.80
2017-07-19T02:50:46.603Z,10.37
2017-07-19T02:53:12.800Z,8.97
2017-07-19T02:55:39.031Z,9.00
2017-07-19T02:58:05.267Z,10.37
2017-07-19T03:00:31.430Z,9.40
2017-07-19T03:02:57.627Z,10.17
2017-07-19T03:05:23.839Z,9.60
2017-07-19T03:07:50.039Z,9.53
2017-07-19T03:10:17.017Z,10.00
2017-07-19T03:12:43.226Z,9.90
2017-07-19T03:15:10.158Z,9.40
2017-07-19T03:17:37.097Z,10.10
2017-07-19T03:20:03.698Z,10.20
2017-07-19T03:22:47.804Z,9.53
2017-07-19T03:25:14.084Z,9.03
2017-07-19T03:27:40.316Z,10.47
2017-07-19T03:30:06.547Z,8.40
2017-07-19T03:32:32.719Z,9.27
2017-07-19T03:34:59.287Z,10.50
2017-07-19T03:37:25.486Z,9.60
2017-07-19T03:39:51.638Z,10.10
2017-07-19T03:42:17.887Z,9.90
2017-07-19T03:44:44.110Z,10.17
2017-07-19T03:47:10.729Z,9.57
2017-07-19T03:49:36.921Z,10.43
2017-07-19T03:52:03.871Z,9.80
2017-07-19T03:54:30.797Z,10.37
2017-07-19T03:56:57.030Z,9.30
2017-07-19T03:59:23.224Z,9.00
2017-07-19T04:01:49.414Z,9.90
2017-07-19T04:04:15.583Z,10.40
2017-07-19T04:06:41.803Z,9.27
2017-07-19T04:09:08.022Z,9.40
2017-07-19T04:11:34.213Z,9.80
2017-07-19T04:14:01.177Z,9.33
2017-07-19T04:16:27.349Z,10.30
2017-07-19T04:18:53.494Z,9.73
2017-07-19T04:21:19.697Z,10.33
2017-07-19T04:23:46.247Z,11.90
2017-07-19T04:26:12.442Z,10.87
2017-07-19T04:28:38.665Z,11.80
2017-07-19T04:31:04.888Z,11.30
2017-07-19T04:33:31.046Z,11.50
2017-07-19T04:35:57.258Z,10.50
2017-07-19T04:38:23.446Z,10.70
2017-07-19T04:40:50.491Z,10.47
2017-07-19T04:43:17.578Z,10.80
2017-07-19T04:45:43.771Z,10.20
2017-07-19T04:48:10.727Z,10.30
2017-07-19T04:50:37.648Z,10.93
2017-07-19T04:53:03.856Z,10.97
2017-07-19T04:55:30.224Z,10.53
2017-07-19T04:57:57.163Z,11.60
2017-07-19T05:00:24.117Z,10.93
2017-07-19T05:02:51.022Z,11.70
2017-07-19T05:05:17.230Z,10.97
2017-07-19T05:07:43.408Z,11.00
2017-07-19T05:10:10.355Z,10.60
2017-07-19T05:12:36.539Z,10.80
2017-07-19T05:15:02.710Z,9.77
2017-07-19T05:17:29.642Z,13.77
2017-07-19T05:19:55.802Z,10.87
2017-07-19T05:22:22.711Z,11.30
2017-07-19T05:24:48.857Z,9.63
2017-07-19T05:27:15.033Z,9.60
2017-07-19T05:29:41.190Z,9.47
2017-07-19T05:32:07.363Z,9.93
2017-07-19T05:34:33.616Z,9.30
2017-07-19T05:36:59.794Z,9.63
2017-07-19T05:39:25.978Z,9.40
2017-07-19T05:41:52.195Z,9.40
2017-07-19T05:44:18.353Z,9.50
2017-07-19T05:46:44.536Z,10.40
2017-07-19T05:49:10.757Z,10.40
2017-07-19T05:51:36.945Z,9.97
2017-07-19T05:54:03.139Z,10.83
2017-07-19T05:56:29.375Z,9.13
2017-07-19T05:58:55.573Z,9.20
2017-07-19T06:01:22.598Z,9.17
2017-07-19T06:03:48.778Z,9.93
2017-07-19T06:06:15.002Z,9.40
2017-07-19T06:08:41.216Z,8.47
2017-07-19T06:11:07.390Z,9.10
2017-07-19T06:13:33.558Z,9.50
2017-07-19T06:15:59.754Z,8.93
2017-07-19T06:18:25.903Z,9.20
2017-07-19T06:20:52.854Z,8.63
2017-07-19T06:23:19.901Z,9.67
2017-07-19T06:25:46.843Z,8.23
2017-07-19T06:28:13.775Z,8.93
2017-07-19T06:30:39.994Z,8.87
2017-07-19T06:33:06.212Z,9.10
2017-07-19T06:35:32.443Z,8.30
2017-07-19T06:37:58.668Z,9.60
2017-07-19T06:40:25.205Z,8.43
2017-07-19T06:42:51.759Z,8.73
2017-07-19T06:45:17.929Z,8.10
2017-07-19T06:47:44.684Z,8.00
2017-07-19T06:50:10.879Z,8.07
2017-07-19T06:52:37.863Z,8.73
2017-07-19T06:55:04.125Z,8.70
2017-07-19T06:57:30.341Z,8.83
2017-07-19T06:59:56.542Z,8.20
2017-07-19T07:02:22.739Z,9.37
2017-07-19T07:04:49.789Z,8.27
2017-07-19T07:07:16.705Z,8.17
2017-07-19T07:09:42.953Z,9.03
2017-07-19T07:12:09.899Z,7.57
2017-07-19T07:14:36.893Z,8.67
2017-07-19T07:17:03.151Z,8.80
2017-07-19T07:19:30.365Z,7.80
2017-07-19T07:21:56.599Z,8.97
2017-07-19T07:24:22.822Z,8.20
2017-07-19T07:26:49.061Z,7.93
2017-07-19T07:29:15.361Z,8.60
2017-07-19T07:31:41.599Z,8.33
2017-07-19T07:34:07.862Z,7.90
2017-07-19T07:36:34.127Z,8.23
2017-07-19T07:39:00.357Z,8.90
2017-07-19T07:41:27.677Z,8.03
2017-07-19T07:43:54.718Z,7.53
2017-07-19T07:46:20.982Z,8.37
2017-07-19T07:48:47.310Z,8.17
2017-07-19T07:51:13.526Z,8.37
2017-07-19T07:53:39.744Z,7.93
2017-07-19T07:56:05.976Z,8.93
2017-07-19T07:58:32.176Z,8.20
2017-07-19T08:00:58.380Z,8.57
2017-07-19T08:03:25.371Z,8.77
2017-07-19T08:05:51.555Z,8.00
2017-07-19T08:08:18.922Z,8.27
2017-07-19T08:10:45.127Z,7.40
2017-07-19T08:13:11.561Z,8.07
2017-07-19T08:15:37.729Z,7.40
2017-07-19T08:18:04.050Z,7.23
2017-07-19T08:20:30.639Z,7.40
2017-07-19T08:22:56.993Z,6.63
2017-07-19T08:25:23.977Z,7.90
2017-07-19T08:27:50.217Z,7.20
2017-07-19T08:30:16.421Z,7.30
2017-07-19T08:32:42.705Z,6.77
2017-07-19T08:35:08.904Z,7.33
2017-07-19T08:37:35.133Z,7.03
2017-07-19T08:40:01.385Z,6.40
2017-07-19T08:42:27.603Z,6.30
2017-07-19T08:44:53.845Z,6.40
2017-07-19T08:47:20.107Z,6.80
2017-07-19T08:49:47.026Z,6.53
2017-07-19T08:52:13.243Z,6.13
2017-07-19T08:54:39.456Z,5.90
2017-07-19T08:57:05.670Z,5.80
2017-07-19T08:59:31.865Z,6.60
2017-07-19T09:01:58.766Z,6.20
2017-07-19T09:04:24.947Z,6.33
2017-07-19T09:06:51.869Z,6.00
2017-07-19T09:09:18.030Z,5.77
2017-07-19T09:11:44.203Z,6.60
2017-07-19T09:14:12.149Z,6.97
2017-07-19T09:16:38.426Z,6.60
2017-07-19T09:19:04.830Z,7.70
2017-07-19T09:21:31.145Z,6.87
2017-07-19T09:23:58.318Z,6.30
2017-07-19T09:26:27.120Z,7.27
2017-07-19T09:28:55.145Z,6.27
2017-07-19T09:31:21.799Z,6.87
2017-07-19T09:33:50.403Z,6.90
2017-07-19T09:36:16.991Z,6.40
2017-07-19T09:38:44.558Z,6.87
2017-07-19T09:41:12.023Z,6.77
2017-07-19T09:43:38.202Z,6.20
2017-07-19T09:46:04.438Z,6.33
2017-07-19T09:48:30.652Z,6.87
2017-07-19T09:50:56.810Z,6.60
2017-07-19T09:53:24.770Z,6.83
2017-07-19T09:55:51.903Z,7.87
2017-07-19T09:58:18.599Z,7.13
2017-07-19T10:00:47.542Z,6.80
2017-07-19T10:03:13.844Z,6.77
2017-07-19T10:05:43.416Z,6.90
2017-07-19T10:08:10.895Z,6.33
2017-07-19T10:10:37.356Z,6.60
2017-07-19T10:13:05.776Z,6.10
2017-07-19T10:15:32.024Z,6.50
2017-07-19T10:17:58.738Z,6.97
2017-07-19T10:20:26.414Z,6.47
2017-07-19T10:22:53.335Z,6.67
2017-07-19T10:25:20.275Z,6.20
2017-07-19T10:27:46.446Z,5.90
2017-07-19T10:30:12.678Z,5.77
2017-07-19T10:32:38.887Z,5.63
2017-07-19T10:35:06.009Z,6.00
2017-07-19T10:37:32.185Z,6.73
2017-07-19T10:39:58.396Z,6.27
2017-07-19T10:42:25.315Z,5.77
2017-07-19T10:44:51.491Z,5.73
2017-07-19T10:47:17.664Z,6.50
2017-07-19T10:49:47.551Z,6.63
2017-07-19T10:52:16.037Z,6.83
2017-07-19T10:54:42.234Z,5.53
2017-07-19T10:57:08.503Z,6.00
2017-07-19T10:59:35.085Z,5.43
2017-07-19T11:02:02.257Z,6.20
2017-07-19T11:04:29.745Z,6.93
2017-07-19T11:06:55.944Z,5.70
2017-07-19T11:09:22.151Z,5.80
2017-07-19T11:11:49.052Z,6.40
2017-07-19T11:14:15.278Z,5.77
2017-07-19T11:16:41.457Z,5.80
2017-07-19T11:19:08.416Z,5.50
2017-07-19T11:21:34.630Z,5.40
2017-07-19T11:24:01.573Z,6.13
2017-07-19T11:26:28.527Z,5.53
2017-07-19T11:28:54.746Z,5.20
2017-07-19T11:31:21.728Z,5.00
2017-07-19T11:33:47.910Z,4.53
2017-07-19T11:36:14.128Z,6.00
2017-07-19T11:38:41.081Z,5.30
2017-07-19T11:41:07.267Z,5.47
2017-07-19T11:43:33.487Z,5.17
2017-07-19T11:45:59.664Z,5.40
2017-07-19T11:48:26.454Z,5.20
2017-07-19T11:50:52.724Z,4.93
2017-07-19T11:53:18.895Z,5.63
2017-07-19T11:55:45.084Z,4.30
2017-07-19T11:58:11.349Z,4.97
2017-07-19T12:00:38.336Z,5.40
2017-07-19T12:03:04.546Z,5.47
2017-07-19T12:05:30.821Z,5.20
2017-07-19T12:07:57.328Z,5.10
2017-07-19T12:10:23.567Z,5.13
2017-07-19T12:12:51.614Z,4.90
2017-07-19T12:15:17.940Z,5.33
2017-07-19T12:17:44.118Z,5.27
2017-07-19T12:20:10.290Z,5.77
2017-07-19T12:22:36.499Z,5.40
2017-07-19T12:25:02.853Z,5.60
2017-07-19T12:27:29.025Z,5.27
2017-07-19T12:29:55.414Z,5.30
2017-07-19T12:32:21.996Z,5.27
2017-07-19T12:34:48.331Z,5.10
2017-07-19T12:37:14.759Z,5.77
2017-07-19T12:39:40.973Z,4.77
2017-07-19T12:42:07.159Z,4.83
2017-07-19T12:44:33.358Z,4.97
2017-07-19T12:46:59.557Z,5.17
2017-07-19T12:49:25.704Z,5.17
2017-07-19T12:51:51.898Z,5.27
2017-07-19T12:54:18.081Z,5.40
2017-07-19T12:56:45.091Z,5.93
2017-07-19T12:59:11.366Z,6.40
2017-07-19T13:01:38.324Z,5.50
2017-07-19T13:04:04.604Z,5.00
2017-07-19T13:06:30.802Z,5.40
2017-07-19T13:08:57.016Z,6.10
2017-07-19T13:11:23.621Z,5.83
2017-07-19T13:13:49.858Z,5.87
2017-07-19T13:16:16.877Z,5.87
2017-07-19T13:18:43.955Z,6.20
2017-07-19T13:21:11.054Z,6.20
2017-07-19T13:23:37.279Z,5.67
2017-07-19T13:26:03.487Z,5.50
2017-07-19T13:28:29.734Z,5.83
2017-07-19T13:30:56.078Z,5.40
2017-07-19T13:33:22.345Z,5.23
2017-07-19T13:35:49.371Z,5.67
2017-07-19T13:38:15.627Z,6.10
2017-07-19T13:40:42.617Z,6.07
2017-07-19T13:43:09.165Z,6.40
2017-07-19T13:45:35.389Z,6.30
2017-07-19T13:48:01.731Z,5.60
2017-07-19T13:50:27.965Z,5.50
2017-07-19T13:52:54.234Z,5.43
2017-07-19T13:55:21.193Z,5.90
2017-07-19T13:57:48.123Z,5.23
2017-07-19T14:00:14.367Z,5.77
2017-07-19T14:02:41.319Z,5.50
2017-07-19T14:05:10.108Z,6.10
2017-07-19T14:07:36.326Z,6.20
2017-07-19T14:10:03.234Z,5.30
2017-07-19T14:12:29.403Z,6.13
2017-07-19T14:14:55.643Z,5.63
2017-07-19T14:17:21.890Z,5.10
2017-07-19T14:19:48.106Z,6.27
2017-07-19T14:22:14.318Z,5.90
2017-07-19T14:24:41.275Z,5.70
2017-07-19T14:27:07.529Z,4.67
2017-07-19T14:29:33.712Z,5.13
2017-07-19T14:32:00.739Z,5.27
2017-07-19T14:34:27.007Z,5.30
2017-07-19T14:36:53.230Z,5.60
2017-07-19T14:39:20.207Z,5.17
2017-07-19T14:41:46.506Z,4.80
2017-07-19T14:44:12.794Z,5.07
2017-07-19T14:46:39.026Z,4.97
2017-07-19T14:49:05.247Z,4.63
2017-07-19T14:51:32.233Z,5.30
2017-07-19T14:53:58.474Z,4.90
2017-07-19T14:56:24.657Z,4.83
2017-07-19T14:58:50.875Z,5.23
2017-07-19T15:01:17.139Z,4.90
2017-07-19T15:03:43.334Z,4.90
2017-07-19T15:06:09.575Z,4.37
2017-07-19T15:08:35.794Z,4.63
2017-07-19T15:11:01.990Z,4.80
2017-07-19T15:13:29.488Z,4.13
2017-07-19T15:15:55.862Z,4.70
2017-07-19T15:18:22.866Z,4.70
2017-07-19T15:20:49.512Z,4.97
2017-07-19T15:23:15.706Z,4.60
2017-07-19T15:25:41.878Z,5.00
2017-07-19T15:28:08.055Z,4.63
2017-07-19T15:30:34.253Z,4.80
2017-07-19T15:33:01.189Z,5.30
2017-07-19T15:35:27.411Z,4.60
2017-07-19T15:37:53.602Z,5.33
2017-07-19T15:40:19.848Z,4.97
2017-07-19T15:42:46.056Z,5.03
2017-07-19T15:45:12.285Z,4.83
2017-07-19T15:47:38.497Z,4.67
2017-07-19T15:50:04.761Z,5.50
2017-07-19T15:52:30.955Z,4.93
2017-07-19T15:54:57.161Z,4.53
2017-07-19T15:57:24.118Z,5.30
2017-07-19T15:59:50.485Z,5.40
2017-07-19T16:02:17.439Z,5.50
2017-07-19T16:04:43.635Z,5.70
2017-07-19T16:07:09.798Z,5.30
2017-07-19T16:09:36.078Z,5.40
2017-07-19T16:12:03.026Z,5.60
2017-07-19T16:14:30.032Z,5.10
2017-07-19T16:16:56.237Z,5.50
2017-07-19T16:19:22.447Z,5.40
2017-07-19T16:21:48.626Z,6.23
2017-07-19T16:24:14.831Z,5.80
2017-07-19T16:26:41.071Z,5.23
2017-07-19T16:29:07.221Z,6.80
2017-07-19T16:31:34.134Z,5.40
2017-07-19T16:34:01.439Z,7.00
2017-07-19T16:36:28.431Z,6.13
2017-07-19T16:38:54.666Z,6.60
2017-07-19T16:41:21.927Z,7.10
2017-07-19T16:43:48.665Z,7.80
2017-07-19T16:46:14.928Z,10.87
2017-07-19T16:48:41.827Z,12.67
2017-07-19T16:51:08.054Z,9.60
2017-07-19T16:53:34.274Z,8.20
2017-07-19T16:56:00.567Z,6.83
2017-07-19T16:58:26.804Z,9.17
2017-07-19T17:00:53.056Z,6.83
2017-07-19T17:03:19.285Z,5.67
2017-07-19T17:05:45.521Z,5.67
2017-07-19T17:08:11.766Z,6.33
2017-07-19T17:10:37.972Z,5.27
2017-07-19T17:13:04.930Z,5.57
2017-07-19T17:15:31.591Z,5.80
2017-07-19T17:17:57.884Z,5.50
2017-07-19T17:20:24.063Z,5.57
2017-07-19T17:22:51.014Z,5.80
2017-07-19T17:25:17.279Z,6.40
2017-07-19T17:27:43.522Z,6.30
2017-07-19T17:30:09.698Z,4.77
2017-07-19T17:32:36.663Z,5.37
2017-07-19T17:35:03.608Z,4.67
2017-07-19T17:37:30.139Z,5.07
2017-07-19T17:39:56.741Z,5.53
2017-07-19T17:42:22.924Z,4.90
2017-07-19T17:44:51.443Z,5.30
2017-07-19T17:47:17.965Z,5.10
2017-07-19T17:49:44.129Z,5.07
2017-07-19T17:52:10.418Z,5.50
2017-07-19T17:54:36.629Z,5.10
2017-07-19T17:57:02.829Z,5.97
2017-07-19T17:59:29.071Z,4.90
2017-07-19T18:01:56.019Z,5.40
2017-07-19T18:04:23.246Z,5.37
2017-07-19T18:06:49.637Z,5.20
2017-07-19T18:09:15.931Z,4.73
2017-07-19T18:11:57.849Z,5.13
2017-07-19T18:14:24.063Z,6.37
2017-07-19T18:16:50.340Z,5.23
2017-07-19T18:19:16.611Z,4.67
2017-07-19T18:21:43.556Z,5.27
2017-07-19T18:24:10.580Z,4.43
2017-07-19T18:26:36.853Z,5.47
2017-07-19T18:29:03.092Z,4.27
2017-07-19T18:31:29.416Z,5.50
2017-07-19T18:33:55.597Z,4.77
2017-07-19T18:36:21.852Z,4.43
2017-07-19T18:38:48.894Z,5.13
2017-07-19T18:41:15.723Z,5.50
2017-07-19T18:43:42.517Z,4.53
2017-07-19T18:46:09.613Z,5.13
2017-07-19T18:48:35.819Z,4.60
2017-07-19T18:51:02.048Z,5.20
2017-07-19T18:53:28.276Z,5.30
2017-07-19T18:55:54.522Z,4.87
2017-07-19T18:58:20.824Z,5.70
2017-07-19T19:00:47.402Z,5.97
2017-07-19T19:03:13.598Z,7.37
2017-07-19T19:05:39.853Z,5.87
2017-07-19T19:08:06.059Z,6.87
2017-07-19T19:10:32.278Z,5.70
2017-07-19T19:12:58.495Z,6.63
2017-07-19T19:15:24.738Z,5.17
2017-07-19T19:17:51.141Z,6.23
2017-07-19T19:20:18.079Z,7.00
2017-07-19T19:22:44.682Z,5.70
2017-07-19T19:25:10.882Z,6.00
2017-07-19T19:27:37.081Z,6.60
2017-07-19T19:30:04.038Z,6.00
2017-07-19T19:32:30.311Z,6.23
2017-07-19T19:34:56.516Z,6.27
2017-07-19T19:37:24.157Z,6.00
2017-07-19T19:39:51.105Z,6.13
2017-07-19T19:42:17.397Z,6.07
2017-07-19T19:44:43.623Z,6.97
2017-07-19T19:47:09.826Z,9.10
2017-07-19T19:49:36.920Z,7.07
2017-07-19T19:52:04.612Z,5.80
2017-07-19T19:54:30.806Z,6.17
2017-07-19T19:57:00.595Z,6.33
2017-07-19T19:59:27.497Z,6.97
2017-07-19T20:01:55.714Z,7.23
2017-07-19T20:04:21.947Z,6.53
2017-07-19T20:06:49.313Z,7.50
2017-07-19T20:09:15.596Z,7.03
2017-07-19T20:11:41.922Z,7.10
2017-07-19T20:14:08.112Z,5.83
2017-07-19T20:16:35.701Z,7.20
2017-07-19T20:19:01.903Z,5.80
2017-07-19T20:21:29.028Z,7.90
2017-07-19T20:23:55.329Z,6.60
2017-07-19T20:26:21.884Z,5.90
2017-07-19T20:28:48.068Z,6.50
2017-07-19T20:31:14.424Z,6.20
2017-07-19T20:33:41.725Z,6.07
2017-07-19T20:36:07.909Z,6.97
2017-07-19T20:38:34.821Z,5.40
2017-07-19T20:41:02.220Z,6.23
2017-07-19T20:43:28.442Z,6.83
2017-07-19T20:45:54.849Z,6.33
2017-07-19T20:48:21.355Z,8.50
2017-07-19T20:50:48.399Z,6.30
2017-07-19T20:53:15.654Z,6.73
2017-07-19T20:55:44.395Z,6.97
2017-07-19T20:58:10.732Z,7.43
2017-07-19T21:00:37.119Z,6.40
2017-07-19T21:03:04.622Z,6.70
2017-07-19T21:05:30.827Z,8.73
2017-07-19T21:07:57.390Z,8.93
2017-07-19T21:10:24.763Z,7.40
2017-07-19T21:12:51.272Z,7.80
2017-07-19T21:15:17.901Z,6.90
2017-07-19T21:17:47.803Z,7.90
2017-07-19T21:20:15.018Z,8.00
2017-07-19T21:22:46.297Z,7.03
2017-07-19T21:25:14.776Z,7.50
2017-07-19T21:27:44.725Z,7.60
2017-07-19T21:30:13.718Z,7.47
2017-07-19T21:32:40.012Z,7.03
2017-07-19T21:35:07.612Z,7.90
2017-07-19T21:37:34.289Z,6.77
2017-07-19T21:40:00.594Z,7.30
2017-07-19T21:42:26.915Z,6.33
2017-07-19T21:44:53.440Z,6.90
2017-07-19T21:47:20.116Z,7.13
2017-07-19T21:49:48.653Z,7.83
2017-07-19T21:52:14.853Z,8.30
2017-07-19T21:54:41.203Z,8.33
2017-07-19T21:57:07.986Z,6.60
2017-07-19T21:59:34.194Z,7.07
2017-07-19T22:02:00.474Z,7.50
2017-07-19T22:04:28.325Z,7.90
2017-07-19T22:06:55.305Z,7.53
2017-07-19T22:09:22.727Z,7.63
2017-07-19T22:11:48.964Z,7.57
2017-07-19T22:14:16.322Z,7.20
2017-07-19T22:16:42.702Z,6.73
2017-07-19T22:19:08.903Z,7.87
2017-07-19T22:21:39.307Z,7.53
2017-07-19T22:24:05.483Z,11.57
2017-07-19T22:26:32.133Z,8.87
2017-07-19T22:28:58.836Z,7.07
2017-07-19T22:31:25.323Z,7.90
2017-07-19T22:33:52.235Z,7.10
2017-07-19T22:36:18.516Z,7.50
2017-07-19T22:38:44.738Z,6.50
2017-07-19T22:41:11.064Z,7.80
2017-07-19T22:43:39.170Z,7.00
2017-07-19T22:46:05.350Z,6.17
2017-07-19T22:48:31.699Z,8.07
2017-07-19T22:50:57.930Z,6.30
2017-07-19T22:53:24.243Z,7.97
2017-07-19T22:55:50.467Z,7.13
2017-07-19T22:58:18.780Z,7.33
2017-07-19T23:00:45.152Z,11.70
2017-07-19T23:03:13.494Z,10.13
2017-07-19T23:05:40.052Z,8.27
2017-07-19T23:08:07.521Z,10.90
2017-07-19T23:10:36.795Z,9.83
2017-07-19T23:13:03.822Z,6.93
2017-07-19T23:15:31.507Z,7.90
2017-07-19T23:17:58.027Z,7.83
2017-07-19T23:20:24.299Z,7.33
2017-07-19T23:22:50.526Z,6.93
2017-07-19T23:25:18.243Z,7.60
2017-07-19T23:27:44.511Z,7.60
2017-07-19T23:30:13.324Z,6.50
2017-07-19T23:32:40.187Z,7.60
2017-07-19T23:35:06.375Z,7.03
2017-07-19T23:37:33.317Z,7.20
2017-07-19T23:40:00.669Z,8.30
2017-07-19T23:42:27.260Z,8.47
2017-07-19T23:44:53.453Z,7.87
2017-07-19T23:47:21.385Z,8.50
2017-07-19T23:49:47.856Z,8.23
2017-07-19T23:52:14.048Z,6.90
2017-07-19T23:54:40.281Z,6.50
2017-07-19T23:57:06.542Z,7.30
2017-07-19T23:59:35.986Z,12.57
